PHJH

Details ICAO PHJH (JHM)
Name KAPALUA
Region USA (Hawaii)
Timezone Pacific/Honolulu (UTC-10.0)
Plans Departing 17
Arriving 22
Stats Elevation 254 ft / 77 m (AMSL)
Location 20.962947° -156.673039°
Runways 1
Magnetic Variation 9.521° E
Sunrise 2017-12-17 16:58:35 UTC / 2017-12-17 06:58:35 Local
Sunset 2017-12-18 03:50:12 UTC / 2017-12-17 17:50:12 Local
Advertisement - Login to hide

Runways

ID Width Length Bearing (true) Bearing (mag) Surface Threshold Offset Overrun Length
02 100 ft / 30 m 3,048 ft / 929 m 27.87° 18.35° Asphalt 0 ft / 0 m 0 ft / 0 m
20 100 ft / 30 m 3,048 ft / 929 m 207.87° 198.35° Asphalt 0 ft / 0 m 0 ft / 0 m

Map

Weather


0- 5 10 15 20 25 30 35+ Temperature / ° C

Clouds and Precipitation
Forecast for 2017-12-18 06:00 UTC. Updated 4 minutes ago

Ground ~20,000 ft ~40,000 ft Winds

METAR

PHJH 180045Z VRB04KT 15SM FEW045 SCT050 26/16 A2985

TAF

PHJH 172341Z 1800/1824 17006KT P6SM FEW030 SCT045 FM180500 VRB04KT P6SM FEW030 SCT045 FM182100 03008KT P6SM FEW030 SCT045

Frequencies

Recorded 118.52 MHz AWOS
Unicom 122.70 MHz CTAF/UNICOM
Warning: Do not use this data for real-world aviation or navigation. No guarantee of current accuracy is given.